Nikolai, AK

2:08 AM AKDT on September 25, 2016 (GMT -0800)
Nikolai AP, Nikolai, AK | | Change Station

Elev 413 ft 63.02 °N, 154.36 °W | Updated 7 minutes ago

Overcast
Overcast
37 °F
Feels Like 37 °F
N
0
Wind Variable Wind from North

Today
High -- | Low -- °F
--% Chance of Precip.
Yesterday
High -- | Low -- °F
Precip. -- in
Pressure 29.89 in
Visibility 10.0 miles
Clouds Scattered Clouds 4400 ft
Overcast 6500 ft
Dew Point 37 °F
Humidity 100%
Rainfall 0.00 in
Snow Depth Not available.
8:07 AM 8:02 PM
Waning Crescent, 29% visible
METAR PAFS 251001Z AUTO 00000KT 10SM SCT044 OVC065 03/03 A2983 RMK AO2 SLP121 T00280028
Pressure 29.89 in
Visibility 10.0 miles
Clouds Scattered Clouds 4400 ft
Overcast 6500 ft
Dew Point 37 °F
Humidity 100%
Rainfall 0.00 in
Snow Depth Not available.
8:07 AM 8:02 PM
Waning Crescent, 29% visible
METAR PAFS 251001Z AUTO 00000KT 10SM SCT044 OVC065 03/03 A2983 RMK AO2 SLP121 T00280028

10-Day Weather Forecast

Almanac

Astronomy

Sep. 25, 2016 Rise Set
Actual Time
Civil Twilight
Nautical Twilight
Astronomical Twilight
Moon
Length of Visible Light
Length of Day
Tomorrow will be .
, % of the Moon is Illuminated

Today's Extremes

State Highs State Lows

Community

WunderPhotos

Upload Photos

1,941,566 photos uploaded!

WunderBlog® & News

Nearby

Air Quality

  Air Quality AQ Index Pollutant
Not available.

Snow Depth

Station Depth Elevation

Earthquake Activity

City Distance Mag. Time & Date
Minimum magnitude displayed is 2.5.

Coastal Water Temperatures

Place Temperature

Stations

Nearby Weather Stations

Station Location Temp. Windchill Dew Point Humidity Wind Precip. Elev Updated Type
                   

Watches & Warnings

There are currently no watches in effect.